<?xml version="1.0" encoding="UTF-8" standalone="no" ?>
<gpx xmlns="http://www.topografix.com/GPX/1/1" xmlns:xsi="http://www.w3.org/2001/XMLSchema-instance" xsi:schemaLocation="http://www.topografix.com/GPX/1/1 http://www.topografix.com/GPX/1/1/gpx.xsd" version="1.1" creator="VisuGPX - https://www.visugpx.com">
  <metadata>
    <name>Saint Franc</name>
  </metadata>
  <trk>
    <name><![CDATA[Saint Franc_1]]></name>
    <extensions>
      <line xmlns="http://www.topografix.com/GPX/gpx_style/0/2">
        <color>0000FF</color>
        <width>4</width>
      </line>
    </extensions>
    <trkseg>
      <trkpt lat="45.43865" lon="5.7028">
        <ele>720</ele>
        <time>2021-08-10T14:22:50.408Z</time>
      </trkpt>
      <trkpt lat="45.43865" lon="5.7028">
        <ele>720</ele>
        <time>2021-08-10T14:22:50.409Z</time>
      </trkpt>
      <trkpt lat="45.4399" lon="5.70231">
        <ele>722.2</ele>
        <time>2021-08-10T14:23:19.519Z</time>
      </trkpt>
      <trkpt lat="45.43969" lon="5.7035">
        <ele>703.7</ele>
        <time>2021-08-10T14:23:27.440Z</time>
      </trkpt>
      <trkpt lat="45.43997" lon="5.7037">
        <ele>699.4</ele>
        <time>2021-08-10T14:23:30.322Z</time>
      </trkpt>
      <trkpt lat="45.44034" lon="5.70358">
        <ele>700.2</ele>
        <time>2021-08-10T14:23:39.240Z</time>
      </trkpt>
      <trkpt lat="45.44074" lon="5.70387">
        <ele>695.7</ele>
        <time>2021-08-10T14:23:43.369Z</time>
      </trkpt>
      <trkpt lat="45.44125" lon="5.70381">
        <ele>694.7</ele>
        <time>2021-08-10T14:23:50.078Z</time>
      </trkpt>
      <trkpt lat="45.44194" lon="5.70331">
        <ele>696.6</ele>
        <time>2021-08-10T14:24:09.016Z</time>
      </trkpt>
      <trkpt lat="45.44177" lon="5.70496">
        <ele>687.5</ele>
        <time>2021-08-10T14:24:19.781Z</time>
      </trkpt>
      <trkpt lat="45.44221" lon="5.70638">
        <ele>675.4</ele>
        <time>2021-08-10T14:24:29.801Z</time>
      </trkpt>
      <trkpt lat="45.44155" lon="5.70725">
        <ele>667.6</ele>
        <time>2021-08-10T14:24:38.072Z</time>
      </trkpt>
      <trkpt lat="45.43874" lon="5.70816">
        <ele>643.4</ele>
        <time>2021-08-10T14:25:04.582Z</time>
      </trkpt>
      <trkpt lat="45.44111" lon="5.70911">
        <ele>634.5</ele>
        <time>2021-08-10T14:25:31.575Z</time>
      </trkpt>
      <trkpt lat="45.44306" lon="5.70948">
        <ele>632.5</ele>
        <time>2021-08-10T14:26:00.574Z</time>
      </trkpt>
      <trkpt lat="45.44391" lon="5.70904">
        <ele>641.1</ele>
        <time>2021-08-10T14:26:43.139Z</time>
      </trkpt>
      <trkpt lat="45.44551" lon="5.70996">
        <ele>646.6</ele>
        <time>2021-08-10T14:27:29.352Z</time>
      </trkpt>
      <trkpt lat="45.44764" lon="5.7107">
        <ele>660.4</ele>
        <time>2021-08-10T14:28:48.788Z</time>
      </trkpt>
      <trkpt lat="45.44926" lon="5.71158">
        <ele>662.3</ele>
        <time>2021-08-10T14:29:25.335Z</time>
      </trkpt>
      <trkpt lat="45.45163" lon="5.71182">
        <ele>681.3</ele>
        <time>2021-08-10T14:31:03.371Z</time>
      </trkpt>
      <trkpt lat="45.45343" lon="5.71152">
        <ele>698.4</ele>
        <time>2021-08-10T14:32:28.087Z</time>
      </trkpt>
      <trkpt lat="45.45463" lon="5.71261">
        <ele>699.4</ele>
        <time>2021-08-10T14:32:56.928Z</time>
      </trkpt>
      <trkpt lat="45.45609" lon="5.71315">
        <ele>705.7</ele>
        <time>2021-08-10T14:33:43.257Z</time>
      </trkpt>
      <trkpt lat="45.45783" lon="5.71356">
        <ele>712.1</ele>
        <time>2021-08-10T14:34:33.356Z</time>
      </trkpt>
      <trkpt lat="45.45873" lon="5.71369">
        <ele>712.8</ele>
        <time>2021-08-10T14:34:51.820Z</time>
      </trkpt>
      <trkpt lat="45.46012" lon="5.71394">
        <ele>714.1</ele>
        <time>2021-08-10T14:35:20.857Z</time>
      </trkpt>
      <trkpt lat="45.46165" lon="5.71471">
        <ele>713.6</ele>
        <time>2021-08-10T14:35:50.239Z</time>
      </trkpt>
      <trkpt lat="45.46283" lon="5.71484">
        <ele>717.8</ele>
        <time>2021-08-10T14:36:23.493Z</time>
      </trkpt>
      <trkpt lat="45.4633" lon="5.71531">
        <ele>716.3</ele>
        <time>2021-08-10T14:36:30.478Z</time>
      </trkpt>
      <trkpt lat="45.46557" lon="5.7163">
        <ele>707.6</ele>
        <time>2021-08-10T14:36:56.377Z</time>
      </trkpt>
      <trkpt lat="45.46674" lon="5.71737">
        <ele>700.5</ele>
        <time>2021-08-10T14:37:09.661Z</time>
      </trkpt>
      <trkpt lat="45.46812" lon="5.71806">
        <ele>693.1</ele>
        <time>2021-08-10T14:37:23.695Z</time>
      </trkpt>
      <trkpt lat="45.46979" lon="5.71815">
        <ele>689.9</ele>
        <time>2021-08-10T14:37:45.708Z</time>
      </trkpt>
      <trkpt lat="45.471" lon="5.71819">
        <ele>683.9</ele>
        <time>2021-08-10T14:37:57.427Z</time>
      </trkpt>
      <trkpt lat="45.47145" lon="5.71765">
        <ele>678.8</ele>
        <time>2021-08-10T14:38:02.838Z</time>
      </trkpt>
      <trkpt lat="45.47227" lon="5.71798">
        <ele>675.4</ele>
        <time>2021-08-10T14:38:11.846Z</time>
      </trkpt>
      <trkpt lat="45.47337" lon="5.71821">
        <ele>665.1</ele>
        <time>2021-08-10T14:38:22.075Z</time>
      </trkpt>
      <trkpt lat="45.47421" lon="5.71908">
        <ele>657.2</ele>
        <time>2021-08-10T14:38:31.626Z</time>
      </trkpt>
      <trkpt lat="45.47447" lon="5.71724">
        <ele>648.5</ele>
        <time>2021-08-10T14:38:42.767Z</time>
      </trkpt>
      <trkpt lat="45.47472" lon="5.71629">
        <ele>642.7</ele>
        <time>2021-08-10T14:38:49.313Z</time>
      </trkpt>
      <trkpt lat="45.4744" lon="5.71478">
        <ele>633.2</ele>
        <time>2021-08-10T14:38:59.489Z</time>
      </trkpt>
      <trkpt lat="45.47434" lon="5.71261">
        <ele>619.9</ele>
        <time>2021-08-10T14:39:13.499Z</time>
      </trkpt>
      <trkpt lat="45.47495" lon="5.71349">
        <ele>608.1</ele>
        <time>2021-08-10T14:39:21.482Z</time>
      </trkpt>
      <trkpt lat="45.47527" lon="5.71459">
        <ele>607.8</ele>
        <time>2021-08-10T14:39:36.492Z</time>
      </trkpt>
      <trkpt lat="45.47566" lon="5.71424">
        <ele>591.5</ele>
        <time>2021-08-10T14:39:40.732Z</time>
      </trkpt>
      <trkpt lat="45.47521" lon="5.71199">
        <ele>593.5</ele>
        <time>2021-08-10T14:40:15.756Z</time>
      </trkpt>
      <trkpt lat="45.47598" lon="5.71177">
        <ele>573.2</ele>
        <time>2021-08-10T14:40:22.981Z</time>
      </trkpt>
      <trkpt lat="45.47727" lon="5.71172">
        <ele>567</ele>
        <time>2021-08-10T14:40:35.645Z</time>
      </trkpt>
      <trkpt lat="45.47843" lon="5.71287">
        <ele>547.8</ele>
        <time>2021-08-10T14:40:48.642Z</time>
      </trkpt>
      <trkpt lat="45.47911" lon="5.71444">
        <ele>523.6</ele>
        <time>2021-08-10T14:41:00.546Z</time>
      </trkpt>
      <trkpt lat="45.48021" lon="5.71573">
        <ele>508.3</ele>
        <time>2021-08-10T14:41:13.648Z</time>
      </trkpt>
      <trkpt lat="45.48105" lon="5.7166">
        <ele>498.7</ele>
        <time>2021-08-10T14:41:23.199Z</time>
      </trkpt>
      <trkpt lat="45.4813" lon="5.7154">
        <ele>507</ele>
        <time>2021-08-10T14:42:04.307Z</time>
      </trkpt>
      <trkpt lat="45.48205" lon="5.71517">
        <ele>495.1</ele>
        <time>2021-08-10T14:42:11.364Z</time>
      </trkpt>
      <trkpt lat="45.48182" lon="5.71278">
        <ele>490.7</ele>
        <time>2021-08-10T14:42:31.969Z</time>
      </trkpt>
      <trkpt lat="45.48297" lon="5.71476">
        <ele>469.1</ele>
        <time>2021-08-10T14:42:48.553Z</time>
      </trkpt>
      <trkpt lat="45.48268" lon="5.7134">
        <ele>463</ele>
        <time>2021-08-10T14:42:57.316Z</time>
      </trkpt>
      <trkpt lat="45.48407" lon="5.71662">
        <ele>432.9</ele>
        <time>2021-08-10T14:43:21.707Z</time>
      </trkpt>
      <trkpt lat="45.48494" lon="5.71625">
        <ele>423</ele>
        <time>2021-08-10T14:43:30.059Z</time>
      </trkpt>
      <trkpt lat="45.48432" lon="5.71533">
        <ele>433.9</ele>
        <time>2021-08-10T14:44:26.104Z</time>
      </trkpt>
      <trkpt lat="45.48342" lon="5.71252">
        <ele>425.1</ele>
        <time>2021-08-10T14:44:48.848Z</time>
      </trkpt>
      <trkpt lat="45.48268" lon="5.71105">
        <ele>417.7</ele>
        <time>2021-08-10T14:45:00.263Z</time>
      </trkpt>
      <trkpt lat="45.48226" lon="5.70981">
        <ele>404.6</ele>
        <time>2021-08-10T14:45:09.146Z</time>
      </trkpt>
      <trkpt lat="45.48232" lon="5.7088">
        <ele>389.7</ele>
        <time>2021-08-10T14:45:15.684Z</time>
      </trkpt>
      <trkpt lat="45.484" lon="5.70949">
        <ele>373.4</ele>
        <time>2021-08-10T14:45:31.768Z</time>
      </trkpt>
      <trkpt lat="45.48498" lon="5.71011">
        <ele>366.4</ele>
        <time>2021-08-10T14:45:40.899Z</time>
      </trkpt>
      <trkpt lat="45.48599" lon="5.71051">
        <ele>360.2</ele>
        <time>2021-08-10T14:45:50.267Z</time>
      </trkpt>
      <trkpt lat="45.48686" lon="5.71079">
        <ele>352.4</ele>
        <time>2021-08-10T14:45:58.472Z</time>
      </trkpt>
      <trkpt lat="45.48589" lon="5.709">
        <ele>340.1</ele>
        <time>2021-08-10T14:46:13.064Z</time>
      </trkpt>
      <trkpt lat="45.48551" lon="5.70748">
        <ele>330.3</ele>
        <time>2021-08-10T14:46:23.473Z</time>
      </trkpt>
      <trkpt lat="45.48509" lon="5.70578">
        <ele>320.9</ele>
        <time>2021-08-10T14:46:35.099Z</time>
      </trkpt>
      <trkpt lat="45.48673" lon="5.70693">
        <ele>310.9</ele>
        <time>2021-08-10T14:46:52.034Z</time>
      </trkpt>
      <trkpt lat="45.48734" lon="5.70729">
        <ele>308.7</ele>
        <time>2021-08-10T14:46:59.480Z</time>
      </trkpt>
      <trkpt lat="45.48747" lon="5.70624">
        <ele>301.5</ele>
        <time>2021-08-10T14:47:06.357Z</time>
      </trkpt>
      <trkpt lat="45.48699" lon="5.70578">
        <ele>302</ele>
        <time>2021-08-10T14:47:18.266Z</time>
      </trkpt>
      <trkpt lat="45.48709" lon="5.70467">
        <ele>291.4</ele>
        <time>2021-08-10T14:47:25.485Z</time>
      </trkpt>
      <trkpt lat="45.48892" lon="5.70453">
        <ele>284</ele>
        <time>2021-08-10T14:47:44.773Z</time>
      </trkpt>
      <trkpt lat="45.49052" lon="5.70556">
        <ele>288</ele>
        <time>2021-08-10T14:48:26.844Z</time>
      </trkpt>
      <trkpt lat="45.493" lon="5.7069">
        <ele>300.9</ele>
        <time>2021-08-10T14:49:54.008Z</time>
      </trkpt>
      <trkpt lat="45.49498" lon="5.70995">
        <ele>298.7</ele>
        <time>2021-08-10T14:50:38.506Z</time>
      </trkpt>
      <trkpt lat="45.49833" lon="5.71363">
        <ele>273.5</ele>
        <time>2021-08-10T14:51:16.157Z</time>
      </trkpt>
      <trkpt lat="45.49872" lon="5.71767">
        <ele>298.2</ele>
        <time>2021-08-10T14:53:20.641Z</time>
      </trkpt>
      <trkpt lat="45.50065" lon="5.72246">
        <ele>311.7</ele>
        <time>2021-08-10T14:55:08.533Z</time>
      </trkpt>
      <trkpt lat="45.50001" lon="5.72761">
        <ele>322.8</ele>
        <time>2021-08-10T14:56:44.736Z</time>
      </trkpt>
      <trkpt lat="45.49803" lon="5.73023">
        <ele>341</ele>
        <time>2021-08-10T14:58:25.805Z</time>
      </trkpt>
      <trkpt lat="45.4958" lon="5.72954">
        <ele>362.7</ele>
        <time>2021-08-10T15:00:13.207Z</time>
      </trkpt>
      <trkpt lat="45.49309" lon="5.72688">
        <ele>374.3</ele>
        <time>2021-08-10T15:01:45.354Z</time>
      </trkpt>
      <trkpt lat="45.49153" lon="5.72705">
        <ele>411.3</ele>
        <time>2021-08-10T15:03:39.797Z</time>
      </trkpt>
      <trkpt lat="45.48978" lon="5.72422">
        <ele>437.7</ele>
        <time>2021-08-10T15:05:50.000Z</time>
      </trkpt>
    </trkseg>
  </trk>
</gpx>